sensor_id;sensor_type;location;lat;lon;timestamp;P1;durP1;ratioP1;P2;durP2;ratioP2
59970;SDS011;45825;45.434;9.116;2022-07-03T00:00:35;9.43;;;4.60;;
59970;SDS011;45825;45.434;9.116;2022-07-03T00:03:01;7.68;;;4.38;;
59970;SDS011;45825;45.434;9.116;2022-07-03T00:05:26;11.15;;;4.60;;
59970;SDS011;45825;45.434;9.116;2022-07-03T00:07:51;7.60;;;4.47;;
59970;SDS011;45825;45.434;9.116;2022-07-03T00:10:17;8.10;;;4.22;;
59970;SDS011;45825;45.434;9.116;2022-07-03T00:12:42;8.70;;;5.20;;
59970;SDS011;45825;45.434;9.116;2022-07-03T00:15:08;9.15;;;4.78;;
59970;SDS011;45825;45.434;9.116;2022-07-03T00:17:34;6.63;;;4.60;;
59970;SDS011;45825;45.434;9.116;2022-07-03T00:20:00;10.35;;;5.57;;
59970;SDS011;45825;45.434;9.116;2022-07-03T00:22:27;11.25;;;4.65;;
59970;SDS011;45825;45.434;9.116;2022-07-03T00:25:00;7.50;;;4.88;;
59970;SDS011;45825;45.434;9.116;2022-07-03T00:27:28;10.60;;;4.85;;
59970;SDS011;45825;45.434;9.116;2022-07-03T00:29:58;11.43;;;4.97;;
59970;SDS011;45825;45.434;9.116;2022-07-03T00:32:25;10.30;;;4.80;;
59970;SDS011;45825;45.434;9.116;2022-07-03T00:34:52;13.20;;;5.20;;
59970;SDS011;45825;45.434;9.116;2022-07-03T00:37:19;11.38;;;4.88;;
59970;SDS011;45825;45.434;9.116;2022-07-03T00:39:46;9.48;;;5.13;;
59970;SDS011;45825;45.434;9.116;2022-07-03T00:42:13;8.10;;;5.10;;
59970;SDS011;45825;45.434;9.116;2022-07-03T00:44:45;10.10;;;5.10;;
59970;SDS011;45825;45.434;9.116;2022-07-03T00:47:16;9.77;;;4.90;;
59970;SDS011;45825;45.434;9.116;2022-07-03T00:49:44;8.15;;;4.88;;
59970;SDS011;45825;45.434;9.116;2022-07-03T00:52:14;9.00;;;4.97;;
59970;SDS011;45825;45.434;9.116;2022-07-03T00:54:45;11.02;;;5.20;;
59970;SDS011;45825;45.434;9.116;2022-07-03T00:57:17;10.30;;;4.57;;
59970;SDS011;45825;45.434;9.116;2022-07-03T00:59:44;6.72;;;4.60;;
59970;SDS011;45825;45.434;9.116;2022-07-03T01:02:23;9.82;;;4.70;;
59970;SDS011;45825;45.434;9.116;2022-07-03T01:07:44;8.18;;;4.57;;
59970;SDS011;45825;45.434;9.116;2022-07-03T01:13:18;8.77;;;5.03;;
59970;SDS011;45825;45.434;9.116;2022-07-03T01:16:25;7.32;;;4.53;;
59970;SDS011;45825;45.434;9.116;2022-07-03T01:21:42;11.15;;;4.70;;
59970;SDS011;45825;45.434;9.116;2022-07-03T01:27:09;9.13;;;4.70;;
59970;SDS011;45825;45.434;9.116;2022-07-03T01:32:16;10.60;;;4.90;;
59970;SDS011;45825;45.434;9.116;2022-07-03T01:34:44;7.95;;;4.75;;
59970;SDS011;45825;45.434;9.116;2022-07-03T01:37:16;8.40;;;4.35;;
59970;SDS011;45825;45.434;9.116;2022-07-03T01:39:44;8.30;;;4.97;;
59970;SDS011;45825;45.434;9.116;2022-07-03T01:42:13;10.57;;;4.97;;
59970;SDS011;45825;45.434;9.116;2022-07-03T01:44:40;7.20;;;4.60;;
59970;SDS011;45825;45.434;9.116;2022-07-03T01:47:06;8.13;;;4.35;;
59970;SDS011;45825;45.434;9.116;2022-07-03T01:49:31;9.27;;;4.75;;
59970;SDS011;45825;45.434;9.116;2022-07-03T01:51:59;8.85;;;4.35;;
59970;SDS011;45825;45.434;9.116;2022-07-03T01:54:26;8.13;;;4.40;;
59970;SDS011;45825;45.434;9.116;2022-07-03T01:56:54;6.43;;;4.07;;
59970;SDS011;45825;45.434;9.116;2022-07-03T01:59:20;9.38;;;4.30;;
59970;SDS011;45825;45.434;9.116;2022-07-03T02:01:52;7.47;;;4.20;;
59970;SDS011;45825;45.434;9.116;2022-07-03T02:04:43;7.88;;;4.68;;
59970;SDS011;45825;45.434;9.116;2022-07-03T02:12:50;9.70;;;4.57;;
59970;SDS011;45825;45.434;9.116;2022-07-03T02:15:19;9.18;;;4.45;;
59970;SDS011;45825;45.434;9.116;2022-07-03T02:18:00;8.30;;;4.00;;
59970;SDS011;45825;45.434;9.116;2022-07-03T02:20:35;9.80;;;4.30;;
59970;SDS011;45825;45.434;9.116;2022-07-03T02:23:04;7.70;;;4.13;;
59970;SDS011;45825;45.434;9.116;2022-07-03T02:25:37;8.13;;;4.20;;
59970;SDS011;45825;45.434;9.116;2022-07-03T02:28:09;7.07;;;4.03;;
59970;SDS011;45825;45.434;9.116;2022-07-03T02:30:39;8.30;;;3.80;;
59970;SDS011;45825;45.434;9.116;2022-07-03T02:33:08;6.43;;;3.78;;
59970;SDS011;45825;45.434;9.116;2022-07-03T02:35:35;7.53;;;4.25;;
59970;SDS011;45825;45.434;9.116;2022-07-03T02:40:40;9.43;;;4.38;;
59970;SDS011;45825;45.434;9.116;2022-07-03T02:45:49;9.18;;;3.90;;
59970;SDS011;45825;45.434;9.116;2022-07-03T02:48:36;6.57;;;3.75;;
59970;SDS011;45825;45.434;9.116;2022-07-03T02:51:10;7.90;;;3.97;;
59970;SDS011;45825;45.434;9.116;2022-07-03T02:53:44;10.27;;;4.20;;
59970;SDS011;45825;45.434;9.116;2022-07-03T02:56:26;6.13;;;3.97;;
59970;SDS011;45825;45.434;9.116;2022-07-03T03:01:46;7.60;;;3.90;;
59970;SDS011;45825;45.434;9.116;2022-07-03T03:04:38;8.80;;;3.60;;
59970;SDS011;45825;45.434;9.116;2022-07-03T03:07:12;9.88;;;4.22;;
59970;SDS011;45825;45.434;9.116;2022-07-03T03:09:41;8.50;;;4.28;;
59970;SDS011;45825;45.434;9.116;2022-07-03T03:12:09;8.77;;;4.43;;
59970;SDS011;45825;45.434;9.116;2022-07-03T03:14:39;7.00;;;4.13;;
59970;SDS011;45825;45.434;9.116;2022-07-03T03:17:05;8.75;;;4.32;;
59970;SDS011;45825;45.434;9.116;2022-07-03T03:19:33;7.57;;;4.10;;
59970;SDS011;45825;45.434;9.116;2022-07-03T03:24:39;9.77;;;4.47;;
59970;SDS011;45825;45.434;9.116;2022-07-03T03:27:04;8.40;;;4.70;;
59970;SDS011;45825;45.434;9.116;2022-07-03T03:29:30;6.75;;;3.97;;
59970;SDS011;45825;45.434;9.116;2022-07-03T03:31:56;8.63;;;4.20;;
59970;SDS011;45825;45.434;9.116;2022-07-03T03:34:22;7.43;;;4.00;;
59970;SDS011;45825;45.434;9.116;2022-07-03T03:36:47;11.57;;;4.30;;
59970;SDS011;45825;45.434;9.116;2022-07-03T03:42:34;8.38;;;4.40;;
59970;SDS011;45825;45.434;9.116;2022-07-03T03:45:00;9.55;;;4.50;;
59970;SDS011;45825;45.434;9.116;2022-07-03T03:47:25;6.65;;;4.05;;
59970;SDS011;45825;45.434;9.116;2022-07-03T03:49:50;7.50;;;3.90;;
59970;SDS011;45825;45.434;9.116;2022-07-03T03:52:16;6.82;;;3.85;;
59970;SDS011;45825;45.434;9.116;2022-07-03T03:54:41;8.85;;;4.40;;
59970;SDS011;45825;45.434;9.116;2022-07-03T03:57:16;8.32;;;4.47;;
59970;SDS011;45825;45.434;9.116;2022-07-03T03:59:42;7.78;;;4.20;;
59970;SDS011;45825;45.434;9.116;2022-07-03T04:02:07;7.82;;;4.63;;
59970;SDS011;45825;45.434;9.116;2022-07-03T04:04:33;7.45;;;4.35;;
59970;SDS011;45825;45.434;9.116;2022-07-03T04:06:58;8.63;;;4.00;;
59970;SDS011;45825;45.434;9.116;2022-07-03T04:09:23;7.68;;;4.28;;
59970;SDS011;45825;45.434;9.116;2022-07-03T04:11:49;7.38;;;4.35;;
59970;SDS011;45825;45.434;9.116;2022-07-03T04:14:14;8.30;;;4.50;;
59970;SDS011;45825;45.434;9.116;2022-07-03T04:16:39;6.68;;;4.13;;
59970;SDS011;45825;45.434;9.116;2022-07-03T04:19:05;8.18;;;4.55;;
59970;SDS011;45825;45.434;9.116;2022-07-03T04:21:30;8.07;;;4.03;;
59970;SDS011;45825;45.434;9.116;2022-07-03T04:23:55;6.60;;;4.43;;
59970;SDS011;45825;45.434;9.116;2022-07-03T04:26:20;11.02;;;4.15;;
59970;SDS011;45825;45.434;9.116;2022-07-03T04:28:46;8.65;;;5.28;;
59970;SDS011;45825;45.434;9.116;2022-07-03T04:31:11;8.60;;;4.75;;
59970;SDS011;45825;45.434;9.116;2022-07-03T04:33:36;12.50;;;4.75;;
59970;SDS011;45825;45.434;9.116;2022-07-03T04:36:02;8.00;;;4.70;;
59970;SDS011;45825;45.434;9.116;2022-07-03T04:38:30;9.07;;;4.72;;
59970;SDS011;45825;45.434;9.116;2022-07-03T04:40:55;6.88;;;4.30;;
59970;SDS011;45825;45.434;9.116;2022-07-03T04:43:21;8.85;;;4.50;;
59970;SDS011;45825;45.434;9.116;2022-07-03T04:45:46;10.35;;;5.03;;
59970;SDS011;45825;45.434;9.116;2022-07-03T04:48:11;9.00;;;4.55;;
59970;SDS011;45825;45.434;9.116;2022-07-03T04:50:37;10.55;;;4.72;;
59970;SDS011;45825;45.434;9.116;2022-07-03T04:53:02;7.93;;;4.55;;
59970;SDS011;45825;45.434;9.116;2022-07-03T04:55:27;8.15;;;4.50;;
59970;SDS011;45825;45.434;9.116;2022-07-03T04:57:53;9.65;;;4.43;;
59970;SDS011;45825;45.434;9.116;2022-07-03T05:00:18;7.75;;;4.30;;
59970;SDS011;45825;45.434;9.116;2022-07-03T05:02:43;7.38;;;4.38;;
59970;SDS011;45825;45.434;9.116;2022-07-03T05:05:08;7.30;;;4.38;;
59970;SDS011;45825;45.434;9.116;2022-07-03T05:07:34;7.93;;;4.25;;
59970;SDS011;45825;45.434;9.116;2022-07-03T05:09:59;7.85;;;4.80;;
59970;SDS011;45825;45.434;9.116;2022-07-03T05:12:24;8.15;;;4.70;;
59970;SDS011;45825;45.434;9.116;2022-07-03T05:14:50;9.57;;;4.68;;
59970;SDS011;45825;45.434;9.116;2022-07-03T05:17:18;8.23;;;4.38;;
59970;SDS011;45825;45.434;9.116;2022-07-03T05:19:44;9.23;;;4.22;;
59970;SDS011;45825;45.434;9.116;2022-07-03T05:22:10;11.93;;;4.97;;
59970;SDS011;45825;45.434;9.116;2022-07-03T05:24:35;12.38;;;5.10;;
59970;SDS011;45825;45.434;9.116;2022-07-03T05:27:01;9.65;;;5.13;;
59970;SDS011;45825;45.434;9.116;2022-07-03T05:29:26;9.45;;;5.82;;
59970;SDS011;45825;45.434;9.116;2022-07-03T05:31:52;11.32;;;5.47;;
59970;SDS011;45825;45.434;9.116;2022-07-03T05:34:17;9.25;;;5.45;;
59970;SDS011;45825;45.434;9.116;2022-07-03T05:36:42;13.27;;;5.80;;
59970;SDS011;45825;45.434;9.116;2022-07-03T05:39:08;9.52;;;5.68;;
59970;SDS011;45825;45.434;9.116;2022-07-03T05:41:52;10.48;;;5.93;;
59970;SDS011;45825;45.434;9.116;2022-07-03T05:44:17;10.18;;;5.65;;
59970;SDS011;45825;45.434;9.116;2022-07-03T05:46:42;12.68;;;6.13;;
59970;SDS011;45825;45.434;9.116;2022-07-03T05:49:08;11.75;;;5.63;;
59970;SDS011;45825;45.434;9.116;2022-07-03T05:51:33;11.27;;;5.55;;
59970;SDS011;45825;45.434;9.116;2022-07-03T05:53:59;9.90;;;5.50;;
59970;SDS011;45825;45.434;9.116;2022-07-03T05:56:24;10.85;;;5.97;;
59970;SDS011;45825;45.434;9.116;2022-07-03T05:58:50;8.77;;;5.95;;
59970;SDS011;45825;45.434;9.116;2022-07-03T06:01:15;12.68;;;6.00;;
59970;SDS011;45825;45.434;9.116;2022-07-03T06:03:41;11.20;;;5.78;;
59970;SDS011;45825;45.434;9.116;2022-07-03T06:06:06;10.55;;;5.00;;
59970;SDS011;45825;45.434;9.116;2022-07-03T06:08:31;13.00;;;5.53;;
59970;SDS011;45825;45.434;9.116;2022-07-03T06:10:57;10.20;;;4.68;;
59970;SDS011;45825;45.434;9.116;2022-07-03T06:13:22;8.93;;;5.28;;
59970;SDS011;45825;45.434;9.116;2022-07-03T06:15:48;9.40;;;4.90;;
59970;SDS011;45825;45.434;9.116;2022-07-03T06:18:13;10.05;;;5.80;;
59970;SDS011;45825;45.434;9.116;2022-07-03T06:20:38;10.30;;;4.88;;
59970;SDS011;45825;45.434;9.116;2022-07-03T06:23:04;7.63;;;4.05;;
59970;SDS011;45825;45.434;9.116;2022-07-03T06:25:29;9.30;;;4.50;;
59970;SDS011;45825;45.434;9.116;2022-07-03T06:27:54;12.15;;;4.60;;
59970;SDS011;45825;45.434;9.116;2022-07-03T06:30:19;10.18;;;4.88;;
59970;SDS011;45825;45.434;9.116;2022-07-03T06:32:45;9.70;;;5.00;;
59970;SDS011;45825;45.434;9.116;2022-07-03T06:35:10;8.27;;;4.55;;
59970;SDS011;45825;45.434;9.116;2022-07-03T06:37:35;9.63;;;4.22;;
59970;SDS011;45825;45.434;9.116;2022-07-03T06:40:01;8.52;;;4.35;;
59970;SDS011;45825;45.434;9.116;2022-07-03T06:42:26;10.00;;;4.20;;
59970;SDS011;45825;45.434;9.116;2022-07-03T06:44:51;7.97;;;4.50;;
59970;SDS011;45825;45.434;9.116;2022-07-03T06:47:17;8.60;;;4.80;;
59970;SDS011;45825;45.434;9.116;2022-07-03T06:49:42;7.45;;;4.90;;
59970;SDS011;45825;45.434;9.116;2022-07-03T06:52:08;8.45;;;4.68;;
59970;SDS011;45825;45.434;9.116;2022-07-03T06:54:34;12.48;;;5.07;;
59970;SDS011;45825;45.434;9.116;2022-07-03T06:57:03;7.88;;;5.00;;
59970;SDS011;45825;45.434;9.116;2022-07-03T06:59:29;8.52;;;4.50;;
59970;SDS011;45825;45.434;9.116;2022-07-03T07:01:54;10.63;;;4.57;;
59970;SDS011;45825;45.434;9.116;2022-07-03T07:04:19;8.90;;;4.53;;
59970;SDS011;45825;45.434;9.116;2022-07-03T07:06:45;8.05;;;4.55;;
59970;SDS011;45825;45.434;9.116;2022-07-03T07:09:10;8.15;;;4.93;;
59970;SDS011;45825;45.434;9.116;2022-07-03T07:11:35;7.07;;;3.70;;
59970;SDS011;45825;45.434;9.116;2022-07-03T07:14:01;10.95;;;4.28;;
59970;SDS011;45825;45.434;9.116;2022-07-03T07:16:26;8.85;;;4.82;;
59970;SDS011;45825;45.434;9.116;2022-07-03T07:18:54;11.00;;;4.70;;
59970;SDS011;45825;45.434;9.116;2022-07-03T07:21:19;8.65;;;4.25;;
59970;SDS011;45825;45.434;9.116;2022-07-03T07:23:44;8.68;;;4.22;;
59970;SDS011;45825;45.434;9.116;2022-07-03T07:26:10;9.80;;;3.95;;
59970;SDS011;45825;45.434;9.116;2022-07-03T07:28:35;8.75;;;4.53;;
59970;SDS011;45825;45.434;9.116;2022-07-03T07:31:01;10.38;;;4.50;;
59970;SDS011;45825;45.434;9.116;2022-07-03T07:33:26;10.55;;;4.80;;
59970;SDS011;45825;45.434;9.116;2022-07-03T07:35:52;10.80;;;5.07;;
59970;SDS011;45825;45.434;9.116;2022-07-03T07:38:17;9.65;;;5.65;;
59970;SDS011;45825;45.434;9.116;2022-07-03T07:40:43;7.88;;;5.40;;
59970;SDS011;45825;45.434;9.116;2022-07-03T07:43:08;8.10;;;5.00;;
59970;SDS011;45825;45.434;9.116;2022-07-03T07:45:34;7.78;;;4.57;;
59970;SDS011;45825;45.434;9.116;2022-07-03T07:48:00;9.50;;;4.82;;
59970;SDS011;45825;45.434;9.116;2022-07-03T07:50:25;10.55;;;4.35;;
59970;SDS011;45825;45.434;9.116;2022-07-03T07:52:51;9.90;;;4.65;;
59970;SDS011;45825;45.434;9.116;2022-07-03T07:55:17;9.02;;;4.43;;
59970;SDS011;45825;45.434;9.116;2022-07-03T07:57:43;9.32;;;5.13;;
59970;SDS011;45825;45.434;9.116;2022-07-03T08:00:11;9.45;;;4.75;;
59970;SDS011;45825;45.434;9.116;2022-07-03T08:02:39;6.40;;;4.32;;
59970;SDS011;45825;45.434;9.116;2022-07-03T08:05:23;9.65;;;4.70;;
59970;SDS011;45825;45.434;9.116;2022-07-03T08:08:04;8.50;;;4.18;;
59970;SDS011;45825;45.434;9.116;2022-07-03T08:10:35;8.05;;;4.40;;
59970;SDS011;45825;45.434;9.116;2022-07-03T08:13:02;8.32;;;4.05;;
59970;SDS011;45825;45.434;9.116;2022-07-03T08:15:27;7.15;;;3.75;;
59970;SDS011;45825;45.434;9.116;2022-07-03T08:17:53;9.27;;;3.85;;
59970;SDS011;45825;45.434;9.116;2022-07-03T08:20:18;12.77;;;5.63;;
59970;SDS011;45825;45.434;9.116;2022-07-03T08:22:44;9.98;;;5.50;;
59970;SDS011;45825;45.434;9.116;2022-07-03T08:25:10;10.13;;;6.03;;
59970;SDS011;45825;45.434;9.116;2022-07-03T08:27:35;12.32;;;7.65;;
59970;SDS011;45825;45.434;9.116;2022-07-03T08:30:01;12.60;;;5.97;;
59970;SDS011;45825;45.434;9.116;2022-07-03T08:32:26;10.20;;;5.78;;
59970;SDS011;45825;45.434;9.116;2022-07-03T08:34:51;11.90;;;6.47;;
59970;SDS011;45825;45.434;9.116;2022-07-03T08:37:18;12.85;;;6.13;;
59970;SDS011;45825;45.434;9.116;2022-07-03T08:39:43;15.57;;;6.82;;
59970;SDS011;45825;45.434;9.116;2022-07-03T08:42:10;7.40;;;5.63;;
59970;SDS011;45825;45.434;9.116;2022-07-03T08:44:36;9.57;;;6.30;;
59970;SDS011;45825;45.434;9.116;2022-07-03T08:47:02;10.60;;;6.60;;
59970;SDS011;45825;45.434;9.116;2022-07-03T08:49:28;9.45;;;6.25;;
59970;SDS011;45825;45.434;9.116;2022-07-03T08:51:54;13.10;;;7.40;;
59970;SDS011;45825;45.434;9.116;2022-07-03T08:54:20;11.23;;;6.95;;
59970;SDS011;45825;45.434;9.116;2022-07-03T08:56:46;10.07;;;6.45;;
59970;SDS011;45825;45.434;9.116;2022-07-03T08:59:12;8.70;;;6.40;;
59970;SDS011;45825;45.434;9.116;2022-07-03T09:01:38;10.45;;;7.93;;
59970;SDS011;45825;45.434;9.116;2022-07-03T09:04:08;10.88;;;8.35;;
59970;SDS011;45825;45.434;9.116;2022-07-03T09:06:36;10.20;;;7.80;;
59970;SDS011;45825;45.434;9.116;2022-07-03T09:09:02;12.25;;;8.13;;
59970;SDS011;45825;45.434;9.116;2022-07-03T09:11:27;11.23;;;7.53;;
59970;SDS011;45825;45.434;9.116;2022-07-03T09:13:53;10.43;;;7.25;;
59970;SDS011;45825;45.434;9.116;2022-07-03T09:16:18;10.20;;;6.28;;
59970;SDS011;45825;45.434;9.116;2022-07-03T09:18:44;12.57;;;8.05;;
59970;SDS011;45825;45.434;9.116;2022-07-03T09:21:10;13.52;;;9.00;;
59970;SDS011;45825;45.434;9.116;2022-07-03T09:23:38;8.73;;;6.68;;
59970;SDS011;45825;45.434;9.116;2022-07-03T09:26:05;9.70;;;6.07;;
59970;SDS011;45825;45.434;9.116;2022-07-03T09:31:16;10.55;;;7.65;;
59970;SDS011;45825;45.434;9.116;2022-07-03T09:33:50;9.48;;;7.05;;
59970;SDS011;45825;45.434;9.116;2022-07-03T09:42:02;13.13;;;7.00;;
59970;SDS011;45825;45.434;9.116;2022-07-03T09:44:29;9.93;;;5.90;;
59970;SDS011;45825;45.434;9.116;2022-07-03T09:47:07;10.40;;;5.47;;
59970;SDS011;45825;45.434;9.116;2022-07-03T09:49:54;8.88;;;5.28;;
59970;SDS011;45825;45.434;9.116;2022-07-03T09:52:34;10.23;;;6.03;;
59970;SDS011;45825;45.434;9.116;2022-07-03T09:57:35;12.23;;;5.95;;
59970;SDS011;45825;45.434;9.116;2022-07-03T10:05:34;8.77;;;4.47;;
59970;SDS011;45825;45.434;9.116;2022-07-03T10:08:03;9.32;;;4.63;;
59970;SDS011;45825;45.434;9.116;2022-07-03T10:10:33;11.52;;;4.28;;
59970;SDS011;45825;45.434;9.116;2022-07-03T10:13:00;7.75;;;4.45;;
59970;SDS011;45825;45.434;9.116;2022-07-03T10:15:26;8.20;;;4.05;;
59970;SDS011;45825;45.434;9.116;2022-07-03T10:17:54;9.43;;;4.60;;
59970;SDS011;45825;45.434;9.116;2022-07-03T10:20:33;8.15;;;3.95;;
59970;SDS011;45825;45.434;9.116;2022-07-03T10:23:01;8.07;;;4.20;;
59970;SDS011;45825;45.434;9.116;2022-07-03T10:25:27;8.10;;;4.00;;
59970;SDS011;45825;45.434;9.116;2022-07-03T10:27:55;8.85;;;4.20;;
59970;SDS011;45825;45.434;9.116;2022-07-03T10:30:21;6.47;;;3.47;;
59970;SDS011;45825;45.434;9.116;2022-07-03T10:32:48;7.22;;;3.45;;
59970;SDS011;45825;45.434;9.116;2022-07-03T10:35:34;8.55;;;4.15;;
59970;SDS011;45825;45.434;9.116;2022-07-03T10:46:29;8.88;;;4.53;;
59970;SDS011;45825;45.434;9.116;2022-07-03T10:51:23;11.18;;;4.38;;
59970;SDS011;45825;45.434;9.116;2022-07-03T10:53:49;10.85;;;3.95;;
59970;SDS011;45825;45.434;9.116;2022-07-03T10:56:15;10.65;;;3.90;;
59970;SDS011;45825;45.434;9.116;2022-07-03T10:58:59;8.40;;;4.10;;
59970;SDS011;45825;45.434;9.116;2022-07-03T11:01:27;9.73;;;4.00;;
59970;SDS011;45825;45.434;9.116;2022-07-03T11:03:54;9.05;;;3.42;;
59970;SDS011;45825;45.434;9.116;2022-07-03T11:09:10;7.93;;;3.40;;
59970;SDS011;45825;45.434;9.116;2022-07-03T11:11:44;8.82;;;3.63;;
59970;SDS011;45825;45.434;9.116;2022-07-03T11:14:24;9.48;;;3.42;;
59970;SDS011;45825;45.434;9.116;2022-07-03T11:19:42;8.75;;;3.63;;
59970;SDS011;45825;45.434;9.116;2022-07-03T11:22:09;7.93;;;3.22;;
59970;SDS011;45825;45.434;9.116;2022-07-03T11:24:44;6.07;;;3.28;;
59970;SDS011;45825;45.434;9.116;2022-07-03T11:27:17;7.20;;;3.05;;
59970;SDS011;45825;45.434;9.116;2022-07-03T11:29:48;7.75;;;3.10;;
59970;SDS011;45825;45.434;9.116;2022-07-03T11:38:19;8.57;;;3.10;;
59970;SDS011;45825;45.434;9.116;2022-07-03T11:40:47;6.10;;;2.72;;
59970;SDS011;45825;45.434;9.116;2022-07-03T11:43:15;7.68;;;2.95;;
59970;SDS011;45825;45.434;9.116;2022-07-03T11:45:41;8.02;;;3.20;;
59970;SDS011;45825;45.434;9.116;2022-07-03T11:48:08;6.60;;;2.78;;
59970;SDS011;45825;45.434;9.116;2022-07-03T11:50:41;9.18;;;3.10;;
59970;SDS011;45825;45.434;9.116;2022-07-03T11:55:58;6.93;;;3.10;;
59970;SDS011;45825;45.434;9.116;2022-07-03T11:58:27;7.07;;;2.90;;
59970;SDS011;45825;45.434;9.116;2022-07-03T12:01:06;9.13;;;3.03;;
59970;SDS011;45825;45.434;9.116;2022-07-03T12:03:33;9.73;;;3.25;;
59970;SDS011;45825;45.434;9.116;2022-07-03T12:05:58;6.28;;;3.47;;
59970;SDS011;45825;45.434;9.116;2022-07-03T12:08:31;6.03;;;3.13;;
59970;SDS011;45825;45.434;9.116;2022-07-03T12:11:01;6.00;;;2.80;;
59970;SDS011;45825;45.434;9.116;2022-07-03T12:13:30;4.88;;;2.95;;
59970;SDS011;45825;45.434;9.116;2022-07-03T12:18:27;5.90;;;3.22;;
59970;SDS011;45825;45.434;9.116;2022-07-03T12:20:52;6.93;;;3.10;;
59970;SDS011;45825;45.434;9.116;2022-07-03T12:23:17;5.80;;;3.17;;
59970;SDS011;45825;45.434;9.116;2022-07-03T12:25:43;6.80;;;2.97;;
59970;SDS011;45825;45.434;9.116;2022-07-03T12:28:09;6.15;;;3.28;;
59970;SDS011;45825;45.434;9.116;2022-07-03T12:30:35;6.50;;;3.10;;
59970;SDS011;45825;45.434;9.116;2022-07-03T12:33:02;6.00;;;3.42;;
59970;SDS011;45825;45.434;9.116;2022-07-03T12:35:28;5.97;;;3.30;;
59970;SDS011;45825;45.434;9.116;2022-07-03T12:37:54;9.05;;;3.30;;
59970;SDS011;45825;45.434;9.116;2022-07-03T12:40:20;9.02;;;3.53;;
59970;SDS011;45825;45.434;9.116;2022-07-03T12:42:46;5.47;;;3.50;;
59970;SDS011;45825;45.434;9.116;2022-07-03T12:45:17;6.22;;;3.22;;
59970;SDS011;45825;45.434;9.116;2022-07-03T12:47:44;5.72;;;3.10;;
59970;SDS011;45825;45.434;9.116;2022-07-03T12:50:10;5.20;;;3.10;;
59970;SDS011;45825;45.434;9.116;2022-07-03T12:52:49;7.05;;;3.03;;
59970;SDS011;45825;45.434;9.116;2022-07-03T12:55:23;6.45;;;3.13;;
59970;SDS011;45825;45.434;9.116;2022-07-03T12:58:11;5.75;;;3.17;;
59970;SDS011;45825;45.434;9.116;2022-07-03T13:00:58;5.38;;;3.25;;
59970;SDS011;45825;45.434;9.116;2022-07-03T13:03:31;8.18;;;3.20;;
59970;SDS011;45825;45.434;9.116;2022-07-03T13:06:00;5.60;;;3.17;;
59970;SDS011;45825;45.434;9.116;2022-07-03T13:08:26;5.47;;;3.30;;
59970;SDS011;45825;45.434;9.116;2022-07-03T13:10:58;5.93;;;2.80;;
59970;SDS011;45825;45.434;9.116;2022-07-03T13:13:24;4.93;;;2.80;;
59970;SDS011;45825;45.434;9.116;2022-07-03T13:15:50;7.07;;;3.22;;
59970;SDS011;45825;45.434;9.116;2022-07-03T13:18:16;8.68;;;3.10;;
59970;SDS011;45825;45.434;9.116;2022-07-03T13:20:41;4.78;;;2.67;;
59970;SDS011;45825;45.434;9.116;2022-07-03T13:23:06;5.13;;;3.00;;
59970;SDS011;45825;45.434;9.116;2022-07-03T13:25:33;4.95;;;2.72;;
59970;SDS011;45825;45.434;9.116;2022-07-03T13:28:04;8.50;;;2.83;;
59970;SDS011;45825;45.434;9.116;2022-07-03T13:30:30;7.15;;;2.85;;
59970;SDS011;45825;45.434;9.116;2022-07-03T13:32:55;6.38;;;2.80;;
59970;SDS011;45825;45.434;9.116;2022-07-03T13:35:20;7.18;;;2.65;;
59970;SDS011;45825;45.434;9.116;2022-07-03T13:37:46;5.15;;;2.70;;
59970;SDS011;45825;45.434;9.116;2022-07-03T13:40:12;5.07;;;2.70;;
59970;SDS011;45825;45.434;9.116;2022-07-03T13:42:37;5.15;;;2.60;;
59970;SDS011;45825;45.434;9.116;2022-07-03T13:45:02;5.97;;;2.88;;
59970;SDS011;45825;45.434;9.116;2022-07-03T13:47:28;4.80;;;2.72;;
59970;SDS011;45825;45.434;9.116;2022-07-03T13:49:53;7.57;;;2.83;;
59970;SDS011;45825;45.434;9.116;2022-07-03T13:52:19;5.93;;;2.83;;
59970;SDS011;45825;45.434;9.116;2022-07-03T13:54:44;6.35;;;2.75;;
59970;SDS011;45825;45.434;9.116;2022-07-03T13:57:09;6.22;;;2.90;;
59970;SDS011;45825;45.434;9.116;2022-07-03T13:59:35;4.10;;;2.78;;
59970;SDS011;45825;45.434;9.116;2022-07-03T14:02:00;5.13;;;3.17;;
59970;SDS011;45825;45.434;9.116;2022-07-03T14:04:25;6.22;;;2.80;;
59970;SDS011;45825;45.434;9.116;2022-07-03T14:06:51;5.00;;;2.65;;
59970;SDS011;45825;45.434;9.116;2022-07-03T14:09:17;6.80;;;2.80;;
59970;SDS011;45825;45.434;9.116;2022-07-03T14:11:42;6.05;;;2.88;;
59970;SDS011;45825;45.434;9.116;2022-07-03T14:14:08;8.05;;;2.88;;
59970;SDS011;45825;45.434;9.116;2022-07-03T14:16:33;6.28;;;3.00;;
59970;SDS011;45825;45.434;9.116;2022-07-03T14:18:59;4.78;;;2.92;;
59970;SDS011;45825;45.434;9.116;2022-07-03T14:21:24;7.13;;;2.90;;
59970;SDS011;45825;45.434;9.116;2022-07-03T14:23:51;6.15;;;2.63;;
59970;SDS011;45825;45.434;9.116;2022-07-03T14:26:16;6.17;;;2.80;;
59970;SDS011;45825;45.434;9.116;2022-07-03T14:29:01;7.72;;;2.85;;
59970;SDS011;45825;45.434;9.116;2022-07-03T14:31:46;6.68;;;3.03;;
59970;SDS011;45825;45.434;9.116;2022-07-03T14:34:29;5.05;;;2.85;;
59970;SDS011;45825;45.434;9.116;2022-07-03T14:36:55;4.83;;;2.80;;
59970;SDS011;45825;45.434;9.116;2022-07-03T14:39:20;7.60;;;2.40;;
59970;SDS011;45825;45.434;9.116;2022-07-03T14:41:45;5.87;;;2.60;;
59970;SDS011;45825;45.434;9.116;2022-07-03T14:44:13;6.43;;;2.88;;
59970;SDS011;45825;45.434;9.116;2022-07-03T14:46:39;4.80;;;2.75;;
59970;SDS011;45825;45.434;9.116;2022-07-03T14:49:04;6.80;;;2.80;;
59970;SDS011;45825;45.434;9.116;2022-07-03T14:51:30;6.50;;;2.72;;
59970;SDS011;45825;45.434;9.116;2022-07-03T14:53:55;4.82;;;2.50;;
59970;SDS011;45825;45.434;9.116;2022-07-03T14:56:21;6.80;;;2.70;;
59970;SDS011;45825;45.434;9.116;2022-07-03T14:58:46;7.13;;;2.63;;
59970;SDS011;45825;45.434;9.116;2022-07-03T15:01:12;5.03;;;2.60;;
59970;SDS011;45825;45.434;9.116;2022-07-03T15:03:43;6.25;;;3.10;;
59970;SDS011;45825;45.434;9.116;2022-07-03T15:06:25;7.15;;;2.80;;
59970;SDS011;45825;45.434;9.116;2022-07-03T15:09:13;8.90;;;2.60;;
59970;SDS011;45825;45.434;9.116;2022-07-03T15:14:48;5.35;;;2.63;;
59970;SDS011;45825;45.434;9.116;2022-07-03T15:17:16;5.13;;;2.53;;
59970;SDS011;45825;45.434;9.116;2022-07-03T15:19:42;5.85;;;2.70;;
59970;SDS011;45825;45.434;9.116;2022-07-03T15:22:08;6.07;;;2.40;;
59970;SDS011;45825;45.434;9.116;2022-07-03T15:24:35;5.07;;;2.50;;
59970;SDS011;45825;45.434;9.116;2022-07-03T15:27:01;7.13;;;2.75;;
59970;SDS011;45825;45.434;9.116;2022-07-03T15:29:30;3.97;;;2.30;;
59970;SDS011;45825;45.434;9.116;2022-07-03T15:31:55;6.63;;;2.53;;
59970;SDS011;45825;45.434;9.116;2022-07-03T15:34:26;7.53;;;2.75;;
59970;SDS011;45825;45.434;9.116;2022-07-03T15:36:54;8.27;;;2.80;;
59970;SDS011;45825;45.434;9.116;2022-07-03T15:39:29;8.88;;;3.05;;
59970;SDS011;45825;45.434;9.116;2022-07-03T15:42:17;4.72;;;2.72;;
59970;SDS011;45825;45.434;9.116;2022-07-03T15:50:05;5.75;;;2.78;;
59970;SDS011;45825;45.434;9.116;2022-07-03T15:52:33;5.03;;;2.60;;
59970;SDS011;45825;45.434;9.116;2022-07-03T15:57:32;5.82;;;2.67;;
59970;SDS011;45825;45.434;9.116;2022-07-03T16:00:08;5.30;;;3.00;;
59970;SDS011;45825;45.434;9.116;2022-07-03T16:02:36;6.57;;;2.65;;
59970;SDS011;45825;45.434;9.116;2022-07-03T16:05:18;5.28;;;2.90;;
59970;SDS011;45825;45.434;9.116;2022-07-03T16:07:52;9.38;;;3.00;;
59970;SDS011;45825;45.434;9.116;2022-07-03T16:10:18;7.78;;;3.15;;
59970;SDS011;45825;45.434;9.116;2022-07-03T16:12:45;4.43;;;2.80;;
59970;SDS011;45825;45.434;9.116;2022-07-03T16:15:12;7.22;;;2.90;;
59970;SDS011;45825;45.434;9.116;2022-07-03T16:17:38;5.03;;;2.90;;
59970;SDS011;45825;45.434;9.116;2022-07-03T16:20:05;5.95;;;2.83;;